Hampton, VA

00:03 EST le 10 décembre 2016 (GMT -0500)
Langley Air Force Base | | Change Station

Alt. 10 ft 37.08 °N, 76.36 °W | Updated 5 minutes ago

Ciel dégagé
Ciel dégagé
32 ° F
Paraît 22 ° F
N
13
Vent Variable Vent de NNO

Aujourd'hui
Haut(e) -- | Bas -- ° F
--% Risque de précip.
Hier
Haut(e) -- | Bas -- ° F
Precip. -- pouce
Pression 30.45 pouce
Visibilité 10.0 Miles terrestres
Nuages Ciel dégagé
Refroidissement éolien 22 ° F
Point de rosée 15 ° F
Humidité 51%
Précipitations 0.00 pouce
Profondeur de la couche neigeuse Non disponible.
7:08 AM 4:48 PM
Lune gibbeuse croissante, 80% visible
METAR KLFI 100458Z AUTO 34011KT 10SM CLR 00/M09 A3043 RMK AO2 SLP312 T00001092 400531008 $
Pression 30.45 pouce
Visibilité 10.0 Miles terrestres
Nuages Ciel dégagé
Refroidissement éolien 22 ° F
Point de rosée 15 ° F
Humidité 51%
Précipitations 0.00 pouce
Profondeur de la couche neigeuse Non disponible.
7:08 AM 4:48 PM
Lune gibbeuse croissante, 80% visible
METAR KLFI 100458Z AUTO 34011KT 10SM CLR 00/M09 A3043 RMK AO2 SLP312 T00001092 400531008 $

10-Day Weather Forecast

Almanac

Astronomie

Dec. 10, 2016 Lever Coucher
Temps réel
Crépuscule civil
Crépuscule nautique
Crépuscule astronomique
Lune
Durée de lumière visible
Longueur du jour
Tomorrow will be .
, % of the Moon is Illuminated

Extrêmes aujourd'hui

State Highs State Lows

Community

WunderPhotos

Upload Photos

1,956,529 Photos téléchargées !

WunderBlog® & News

Nearby

Qualité de l'air

  Qualité de l'air Indice de la qualité de l'air Polluant
Not available.

Épaisseur de neige

Station Depth Altitude

Activité sismique

Ville Distance Mag. Time & Date
Minimum magnitude displayed is 2.5.

Températures des eaux côtières

Lieu Température

Stations

Stations météo à proximité

Emplacement de la station Température Refroidissement éolien Point de rosée Humidité Vent Precip. Alt. Mise à jour Type
                   

Watches & Warnings

There are currently no watches in effect.